sensor_id;sensor_type;location;lat;lon;timestamp;temperature;humidity
12309;DHT22;6217;48.150;17.142;2023-09-19T00:02:00;23.30;74.10
12309;DHT22;6217;48.150;17.142;2023-09-19T00:06:06;23.30;74.80
12309;DHT22;6217;48.150;17.142;2023-09-19T00:10:13;23.30;74.20
12309;DHT22;6217;48.150;17.142;2023-09-19T00:14:24;23.30;74.40
12309;DHT22;6217;48.150;17.142;2023-09-19T00:18:30;23.20;74.60
12309;DHT22;6217;48.150;17.142;2023-09-19T00:22:41;23.20;74.70
12309;DHT22;6217;48.150;17.142;2023-09-19T00:26:48;23.10;74.60
12309;DHT22;6217;48.150;17.142;2023-09-19T00:30:55;23.10;74.60
12309;DHT22;6217;48.150;17.142;2023-09-19T00:35:01;23.10;74.80
12309;DHT22;6217;48.150;17.142;2023-09-19T00:39:07;23.00;75.20
12309;DHT22;6217;48.150;17.142;2023-09-19T00:43:14;22.90;76.10
12309;DHT22;6217;48.150;17.142;2023-09-19T00:47:20;22.80;77.10
12309;DHT22;6217;48.150;17.142;2023-09-19T00:51:26;22.70;77.90
12309;DHT22;6217;48.150;17.142;2023-09-19T00:55:34;22.60;78.10
12309;DHT22;6217;48.150;17.142;2023-09-19T00:59:40;22.50;78.40
12309;DHT22;6217;48.150;17.142;2023-09-19T01:03:47;22.40;78.60
12309;DHT22;6217;48.150;17.142;2023-09-19T01:07:54;22.30;79.00
12309;DHT22;6217;48.150;17.142;2023-09-19T01:12:02;22.20;79.00
12309;DHT22;6217;48.150;17.142;2023-09-19T01:29:52;22.10;79.50
12309;DHT22;6217;48.150;17.142;2023-09-19T01:34:01;22.00;79.80
12309;DHT22;6217;48.150;17.142;2023-09-19T01:38:09;21.90;80.50
12309;DHT22;6217;48.150;17.142;2023-09-19T01:42:35;21.80;81.40
12309;DHT22;6217;48.150;17.142;2023-09-19T01:46:45;21.60;82.50
12309;DHT22;6217;48.150;17.142;2023-09-19T01:50:59;21.40;82.90
12309;DHT22;6217;48.150;17.142;2023-09-19T01:55:12;21.40;83.90
12309;DHT22;6217;48.150;17.142;2023-09-19T01:59:25;21.10;85.00
12309;DHT22;6217;48.150;17.142;2023-09-19T02:03:50;21.00;86.20
12309;DHT22;6217;48.150;17.142;2023-09-19T02:07:56;20.90;86.70
12309;DHT22;6217;48.150;17.142;2023-09-19T02:12:02;20.90;87.00
12309;DHT22;6217;48.150;17.142;2023-09-19T02:16:11;20.80;87.20
12309;DHT22;6217;48.150;17.142;2023-09-19T02:20:18;20.80;87.60
12309;DHT22;6217;48.150;17.142;2023-09-19T02:24:26;20.70;88.00
12309;DHT22;6217;48.150;17.142;2023-09-19T02:28:32;20.60;88.60
12309;DHT22;6217;48.150;17.142;2023-09-19T02:32:38;20.60;88.90
12309;DHT22;6217;48.150;17.142;2023-09-19T02:36:44;20.50;89.20
12309;DHT22;6217;48.150;17.142;2023-09-19T02:40:50;20.50;89.60
12309;DHT22;6217;48.150;17.142;2023-09-19T02:44:56;20.40;89.90
12309;DHT22;6217;48.150;17.142;2023-09-19T02:49:03;20.40;90.00
12309;DHT22;6217;48.150;17.142;2023-09-19T02:53:12;20.30;90.00
12309;DHT22;6217;48.150;17.142;2023-09-19T02:57:18;20.30;90.00
12309;DHT22;6217;48.150;17.142;2023-09-19T03:01:25;20.30;90.00
12309;DHT22;6217;48.150;17.142;2023-09-19T03:05:32;20.30;90.10
12309;DHT22;6217;48.150;17.142;2023-09-19T03:09:39;20.30;90.10
12309;DHT22;6217;48.150;17.142;2023-09-19T03:13:45;20.20;90.20
12309;DHT22;6217;48.150;17.142;2023-09-19T03:17:51;20.20;90.20
12309;DHT22;6217;48.150;17.142;2023-09-19T03:22:01;20.10;90.30
12309;DHT22;6217;48.150;17.142;2023-09-19T03:26:14;20.10;90.30
12309;DHT22;6217;48.150;17.142;2023-09-19T03:30:22;19.90;90.30
12309;DHT22;6217;48.150;17.142;2023-09-19T03:34:28;19.90;90.40
12309;DHT22;6217;48.150;17.142;2023-09-19T03:38:35;19.80;90.60
12309;DHT22;6217;48.150;17.142;2023-09-19T03:42:41;19.80;90.80
12309;DHT22;6217;48.150;17.142;2023-09-19T03:46:51;19.70;91.10
12309;DHT22;6217;48.150;17.142;2023-09-19T03:50:57;19.50;91.40
12309;DHT22;6217;48.150;17.142;2023-09-19T03:55:03;19.40;91.70
12309;DHT22;6217;48.150;17.142;2023-09-19T03:59:10;19.40;91.80
12309;DHT22;6217;48.150;17.142;2023-09-19T04:03:16;19.40;92.00
12309;DHT22;6217;48.150;17.142;2023-09-19T04:07:26;19.40;91.90
12309;DHT22;6217;48.150;17.142;2023-09-19T04:11:34;19.40;92.00
12309;DHT22;6217;48.150;17.142;2023-09-19T04:15:40;19.40;92.10
12309;DHT22;6217;48.150;17.142;2023-09-19T04:19:46;19.30;92.40
12309;DHT22;6217;48.150;17.142;2023-09-19T04:23:52;19.20;92.60
12309;DHT22;6217;48.150;17.142;2023-09-19T04:27:58;19.20;92.80
12309;DHT22;6217;48.150;17.142;2023-09-19T04:32:05;19.30;92.70
12309;DHT22;6217;48.150;17.142;2023-09-19T04:36:11;19.30;92.70
12309;DHT22;6217;48.150;17.142;2023-09-19T04:40:18;19.30;92.70
12309;DHT22;6217;48.150;17.142;2023-09-19T04:44:24;19.40;92.70
12309;DHT22;6217;48.150;17.142;2023-09-19T04:48:30;19.40;92.70
12309;DHT22;6217;48.150;17.142;2023-09-19T04:52:39;19.40;92.70
12309;DHT22;6217;48.150;17.142;2023-09-19T04:56:47;19.40;92.80
12309;DHT22;6217;48.150;17.142;2023-09-19T05:00:53;19.40;92.90
12309;DHT22;6217;48.150;17.142;2023-09-19T05:05:00;19.40;93.00
12309;DHT22;6217;48.150;17.142;2023-09-19T05:09:06;19.40;93.10
12309;DHT22;6217;48.150;17.142;2023-09-19T05:13:12;19.40;93.20
12309;DHT22;6217;48.150;17.142;2023-09-19T05:17:18;19.40;93.30
12309;DHT22;6217;48.150;17.142;2023-09-19T05:21:25;19.40;93.30
12309;DHT22;6217;48.150;17.142;2023-09-19T05:25:36;19.40;93.40
12309;DHT22;6217;48.150;17.142;2023-09-19T05:29:43;19.40;93.30
12309;DHT22;6217;48.150;17.142;2023-09-19T05:33:50;19.50;93.30
12309;DHT22;6217;48.150;17.142;2023-09-19T05:37:57;19.50;93.40
12309;DHT22;6217;48.150;17.142;2023-09-19T05:42:04;19.60;93.40
12309;DHT22;6217;48.150;17.142;2023-09-19T05:46:10;19.60;93.30
12309;DHT22;6217;48.150;17.142;2023-09-19T05:50:16;19.60;93.40
12309;DHT22;6217;48.150;17.142;2023-09-19T05:54:22;19.60;93.50
12309;DHT22;6217;48.150;17.142;2023-09-19T05:58:28;19.50;93.60
12309;DHT22;6217;48.150;17.142;2023-09-19T06:02:36;19.60;93.70
12309;DHT22;6217;48.150;17.142;2023-09-19T06:06:45;19.60;93.80
12309;DHT22;6217;48.150;17.142;2023-09-19T06:10:54;19.60;93.80
12309;DHT22;6217;48.150;17.142;2023-09-19T06:15:00;19.60;93.80
12309;DHT22;6217;48.150;17.142;2023-09-19T06:19:06;19.60;93.70
12309;DHT22;6217;48.150;17.142;2023-09-19T06:23:14;19.70;93.80
12309;DHT22;6217;48.150;17.142;2023-09-19T06:27:20;19.70;94.00
12309;DHT22;6217;48.150;17.142;2023-09-19T06:31:27;19.80;93.90
12309;DHT22;6217;48.150;17.142;2023-09-19T06:35:34;19.80;94.00
12309;DHT22;6217;48.150;17.142;2023-09-19T06:39:41;19.80;94.00
12309;DHT22;6217;48.150;17.142;2023-09-19T06:43:47;19.90;94.00
12309;DHT22;6217;48.150;17.142;2023-09-19T06:47:53;19.90;94.00
12309;DHT22;6217;48.150;17.142;2023-09-19T06:52:00;20.00;93.90
12309;DHT22;6217;48.150;17.142;2023-09-19T06:56:07;20.20;93.90
12309;DHT22;6217;48.150;17.142;2023-09-19T07:00:14;20.30;93.80
12309;DHT22;6217;48.150;17.142;2023-09-19T07:04:31;20.40;93.80
12309;DHT22;6217;48.150;17.142;2023-09-19T07:08:38;20.50;93.60
12309;DHT22;6217;48.150;17.142;2023-09-19T07:12:44;20.60;93.60
12309;DHT22;6217;48.150;17.142;2023-09-19T07:16:50;20.60;93.50
12309;DHT22;6217;48.150;17.142;2023-09-19T07:20:59;20.70;93.40
12309;DHT22;6217;48.150;17.142;2023-09-19T07:25:10;20.70;93.30
12309;DHT22;6217;48.150;17.142;2023-09-19T07:29:16;20.70;93.30
12309;DHT22;6217;48.150;17.142;2023-09-19T07:33:22;20.70;93.20
12309;DHT22;6217;48.150;17.142;2023-09-19T07:37:30;20.70;93.30
12309;DHT22;6217;48.150;17.142;2023-09-19T07:41:38;20.80;93.20
12309;DHT22;6217;48.150;17.142;2023-09-19T07:45:44;21.00;93.10
12309;DHT22;6217;48.150;17.142;2023-09-19T07:49:50;21.10;92.90
12309;DHT22;6217;48.150;17.142;2023-09-19T07:53:56;21.10;92.80
12309;DHT22;6217;48.150;17.142;2023-09-19T07:58:02;21.20;92.70
12309;DHT22;6217;48.150;17.142;2023-09-19T08:02:10;21.30;92.60
12309;DHT22;6217;48.150;17.142;2023-09-19T08:06:21;21.30;92.50
12309;DHT22;6217;48.150;17.142;2023-09-19T08:10:27;21.50;92.40
12309;DHT22;6217;48.150;17.142;2023-09-19T08:14:34;21.70;92.10
12309;DHT22;6217;48.150;17.142;2023-09-19T08:18:40;21.70;91.90
12309;DHT22;6217;48.150;17.142;2023-09-19T08:22:51;21.80;91.70
12309;DHT22;6217;48.150;17.142;2023-09-19T08:27:00;21.80;91.50
12309;DHT22;6217;48.150;17.142;2023-09-19T08:31:06;21.80;91.40
12309;DHT22;6217;48.150;17.142;2023-09-19T08:35:14;21.80;91.30
12309;DHT22;6217;48.150;17.142;2023-09-19T08:39:20;21.70;91.20
12309;DHT22;6217;48.150;17.142;2023-09-19T08:43:26;21.70;91.20
12309;DHT22;6217;48.150;17.142;2023-09-19T08:47:46;21.80;91.20
12309;DHT22;6217;48.150;17.142;2023-09-19T08:52:01;22.00;91.00
12309;DHT22;6217;48.150;17.142;2023-09-19T08:56:12;22.20;90.70
12309;DHT22;6217;48.150;17.142;2023-09-19T09:00:19;22.30;90.50
12309;DHT22;6217;48.150;17.142;2023-09-19T09:04:28;22.20;90.30
12309;DHT22;6217;48.150;17.142;2023-09-19T09:08:34;22.20;90.30
12309;DHT22;6217;48.150;17.142;2023-09-19T09:12:41;22.40;90.10
12309;DHT22;6217;48.150;17.142;2023-09-19T09:16:49;22.30;90.10
12309;DHT22;6217;48.150;17.142;2023-09-19T09:20:55;22.30;89.90
12309;DHT22;6217;48.150;17.142;2023-09-19T09:25:01;22.30;89.80
12309;DHT22;6217;48.150;17.142;2023-09-19T09:29:09;22.30;89.60
12309;DHT22;6217;48.150;17.142;2023-09-19T09:33:16;22.20;89.60
12309;DHT22;6217;48.150;17.142;2023-09-19T09:37:23;22.10;89.50
12309;DHT22;6217;48.150;17.142;2023-09-19T09:41:36;22.10;89.50
12309;DHT22;6217;48.150;17.142;2023-09-19T09:45:43;22.20;89.20
12309;DHT22;6217;48.150;17.142;2023-09-19T09:49:54;22.20;89.00
12309;DHT22;6217;48.150;17.142;2023-09-19T09:54:20;22.20;88.60
12309;DHT22;6217;48.150;17.142;2023-09-19T09:58:26;22.20;88.00
12309;DHT22;6217;48.150;17.142;2023-09-19T10:02:35;22.20;88.10
12309;DHT22;6217;48.150;17.142;2023-09-19T10:06:46;22.10;87.90
12309;DHT22;6217;48.150;17.142;2023-09-19T10:10:54;22.10;87.70
12309;DHT22;6217;48.150;17.142;2023-09-19T10:15:11;22.30;87.60
12309;DHT22;6217;48.150;17.142;2023-09-19T10:19:30;22.30;87.20
12309;DHT22;6217;48.150;17.142;2023-09-19T10:23:43;22.30;87.20
12309;DHT22;6217;48.150;17.142;2023-09-19T10:27:50;22.30;87.30
12309;DHT22;6217;48.150;17.142;2023-09-19T10:31:59;22.40;87.10
12309;DHT22;6217;48.150;17.142;2023-09-19T10:36:07;22.60;87.00
12309;DHT22;6217;48.150;17.142;2023-09-19T10:40:15;22.70;86.50
12309;DHT22;6217;48.150;17.142;2023-09-19T10:44:24;22.90;86.40
12309;DHT22;6217;48.150;17.142;2023-09-19T10:48:34;23.10;85.80
12309;DHT22;6217;48.150;17.142;2023-09-19T10:52:41;23.30;85.50
12309;DHT22;6217;48.150;17.142;2023-09-19T10:56:49;23.50;84.90
12309;DHT22;6217;48.150;17.142;2023-09-19T11:00:58;23.50;84.10
12309;DHT22;6217;48.150;17.142;2023-09-19T11:05:12;23.50;83.90
12309;DHT22;6217;48.150;17.142;2023-09-19T11:09:19;23.60;83.80
12309;DHT22;6217;48.150;17.142;2023-09-19T11:13:29;23.70;83.60
12309;DHT22;6217;48.150;17.142;2023-09-19T11:17:43;23.60;83.20
12309;DHT22;6217;48.150;17.142;2023-09-19T11:21:58;23.70;83.10
12309;DHT22;6217;48.150;17.142;2023-09-19T11:26:04;23.80;83.00
12309;DHT22;6217;48.150;17.142;2023-09-19T11:30:26;24.00;82.50
12309;DHT22;6217;48.150;17.142;2023-09-19T11:42:51;24.20;80.20
12309;DHT22;6217;48.150;17.142;2023-09-19T11:47:00;24.30;80.00
12309;DHT22;6217;48.150;17.142;2023-09-19T11:51:13;24.40;79.50
12309;DHT22;6217;48.150;17.142;2023-09-19T11:55:32;24.40;79.20
12309;DHT22;6217;48.150;17.142;2023-09-19T11:59:39;24.50;79.10
12309;DHT22;6217;48.150;17.142;2023-09-19T12:03:47;24.70;78.90
12309;DHT22;6217;48.150;17.142;2023-09-19T12:07:55;24.70;78.50
12309;DHT22;6217;48.150;17.142;2023-09-19T12:12:01;24.60;78.30
12309;DHT22;6217;48.150;17.142;2023-09-19T12:16:15;24.50;78.40
12309;DHT22;6217;48.150;17.142;2023-09-19T12:20:22;24.60;78.00
12309;DHT22;6217;48.150;17.142;2023-09-19T12:24:29;24.70;78.00
12309;DHT22;6217;48.150;17.142;2023-09-19T12:28:41;24.80;77.70
12309;DHT22;6217;48.150;17.142;2023-09-19T12:32:50;24.80;77.60
12309;DHT22;6217;48.150;17.142;2023-09-19T12:41:17;24.80;76.90
12309;DHT22;6217;48.150;17.142;2023-09-19T12:45:24;24.90;76.90
12309;DHT22;6217;48.150;17.142;2023-09-19T12:49:30;24.80;76.60
12309;DHT22;6217;48.150;17.142;2023-09-19T12:53:37;24.70;76.30
12309;DHT22;6217;48.150;17.142;2023-09-19T12:58:08;24.70;76.30
12309;DHT22;6217;48.150;17.142;2023-09-19T13:02:18;24.70;75.30
12309;DHT22;6217;48.150;17.142;2023-09-19T13:06:36;24.60;74.90
12309;DHT22;6217;48.150;17.142;2023-09-19T13:15:20;24.50;75.00
12309;DHT22;6217;48.150;17.142;2023-09-19T13:24:25;24.40;75.50
12309;DHT22;6217;48.150;17.142;2023-09-19T13:28:38;24.60;75.30
12309;DHT22;6217;48.150;17.142;2023-09-19T13:32:45;24.60;75.30
12309;DHT22;6217;48.150;17.142;2023-09-19T13:36:52;24.60;75.40
12309;DHT22;6217;48.150;17.142;2023-09-19T13:40:58;24.50;75.60
12309;DHT22;6217;48.150;17.142;2023-09-19T13:45:07;24.40;75.70
12309;DHT22;6217;48.150;17.142;2023-09-19T13:49:13;24.30;76.20
12309;DHT22;6217;48.150;17.142;2023-09-19T13:53:19;24.00;77.50
12309;DHT22;6217;48.150;17.142;2023-09-19T13:57:26;23.80;78.70
12309;DHT22;6217;48.150;17.142;2023-09-19T14:01:32;23.60;79.50
12309;DHT22;6217;48.150;17.142;2023-09-19T14:05:39;23.40;80.20
12309;DHT22;6217;48.150;17.142;2023-09-19T14:09:45;23.20;81.00
12309;DHT22;6217;48.150;17.142;2023-09-19T14:13:51;23.10;81.90
12309;DHT22;6217;48.150;17.142;2023-09-19T14:17:58;23.00;82.30
12309;DHT22;6217;48.150;17.142;2023-09-19T14:22:04;23.00;82.80
12309;DHT22;6217;48.150;17.142;2023-09-19T14:26:13;22.90;83.30
12309;DHT22;6217;48.150;17.142;2023-09-19T14:30:19;22.90;83.70
12309;DHT22;6217;48.150;17.142;2023-09-19T14:34:25;22.90;84.20
12309;DHT22;6217;48.150;17.142;2023-09-19T14:38:31;22.80;84.80
12309;DHT22;6217;48.150;17.142;2023-09-19T14:42:39;22.80;85.00
12309;DHT22;6217;48.150;17.142;2023-09-19T14:46:45;22.80;85.00
12309;DHT22;6217;48.150;17.142;2023-09-19T14:50:52;22.90;84.80
12309;DHT22;6217;48.150;17.142;2023-09-19T14:54:58;23.00;84.50
12309;DHT22;6217;48.150;17.142;2023-09-19T14:59:04;23.00;83.90
12309;DHT22;6217;48.150;17.142;2023-09-19T15:03:10;23.00;83.60
12309;DHT22;6217;48.150;17.142;2023-09-19T15:07:17;22.90;83.50
12309;DHT22;6217;48.150;17.142;2023-09-19T15:11:23;22.90;83.50
12309;DHT22;6217;48.150;17.142;2023-09-19T15:15:31;22.90;83.10
12309;DHT22;6217;48.150;17.142;2023-09-19T15:19:37;22.90;82.80
12309;DHT22;6217;48.150;17.142;2023-09-19T15:23:43;23.00;82.80
12309;DHT22;6217;48.150;17.142;2023-09-19T15:27:49;23.00;82.70
12309;DHT22;6217;48.150;17.142;2023-09-19T15:31:56;23.00;82.80
12309;DHT22;6217;48.150;17.142;2023-09-19T15:36:09;23.00;82.80
12309;DHT22;6217;48.150;17.142;2023-09-19T15:40:22;23.00;82.70
12309;DHT22;6217;48.150;17.142;2023-09-19T15:44:30;23.10;82.40
12309;DHT22;6217;48.150;17.142;2023-09-19T15:48:38;23.00;82.40
12309;DHT22;6217;48.150;17.142;2023-09-19T15:52:53;23.10;82.30
12309;DHT22;6217;48.150;17.142;2023-09-19T15:57:03;23.00;82.30
12309;DHT22;6217;48.150;17.142;2023-09-19T16:01:10;23.00;82.20
12309;DHT22;6217;48.150;17.142;2023-09-19T16:05:16;23.10;81.90
12309;DHT22;6217;48.150;17.142;2023-09-19T16:09:24;23.00;81.80
12309;DHT22;6217;48.150;17.142;2023-09-19T16:13:34;23.00;81.80
12309;DHT22;6217;48.150;17.142;2023-09-19T16:17:43;23.00;81.60
12309;DHT22;6217;48.150;17.142;2023-09-19T16:21:49;22.90;81.70
12309;DHT22;6217;48.150;17.142;2023-09-19T16:26:05;22.90;81.70
12309;DHT22;6217;48.150;17.142;2023-09-19T16:30:12;22.80;81.50
12309;DHT22;6217;48.150;17.142;2023-09-19T16:34:19;22.80;81.50
12309;DHT22;6217;48.150;17.142;2023-09-19T16:38:25;22.80;81.50
12309;DHT22;6217;48.150;17.142;2023-09-19T16:42:32;22.70;81.80
12309;DHT22;6217;48.150;17.142;2023-09-19T16:46:38;22.70;82.00
12309;DHT22;6217;48.150;17.142;2023-09-19T16:50:49;22.60;81.60
12309;DHT22;6217;48.150;17.142;2023-09-19T16:54:58;22.50;82.70
12309;DHT22;6217;48.150;17.142;2023-09-19T16:59:04;22.40;83.00
12309;DHT22;6217;48.150;17.142;2023-09-19T17:03:11;22.30;83.30
12309;DHT22;6217;48.150;17.142;2023-09-19T17:07:18;22.30;83.40
12309;DHT22;6217;48.150;17.142;2023-09-19T17:11:25;22.20;83.60
12309;DHT22;6217;48.150;17.142;2023-09-19T17:15:31;22.20;83.70
12309;DHT22;6217;48.150;17.142;2023-09-19T17:19:37;22.10;83.90
12309;DHT22;6217;48.150;17.142;2023-09-19T17:23:43;22.10;84.10
12309;DHT22;6217;48.150;17.142;2023-09-19T17:27:49;22.00;84.30
12309;DHT22;6217;48.150;17.142;2023-09-19T17:31:55;21.80;84.90
12309;DHT22;6217;48.150;17.142;2023-09-19T17:36:16;21.70;85.60
12309;DHT22;6217;48.150;17.142;2023-09-19T17:40:23;21.60;86.30
12309;DHT22;6217;48.150;17.142;2023-09-19T17:44:32;21.60;86.30
12309;DHT22;6217;48.150;17.142;2023-09-19T17:48:42;21.50;86.60
12309;DHT22;6217;48.150;17.142;2023-09-19T17:52:51;21.50;87.10
12309;DHT22;6217;48.150;17.142;2023-09-19T17:56:57;21.40;87.50
12309;DHT22;6217;48.150;17.142;2023-09-19T18:01:10;21.40;87.90
12309;DHT22;6217;48.150;17.142;2023-09-19T18:05:17;21.30;88.20
12309;DHT22;6217;48.150;17.142;2023-09-19T18:09:24;21.30;88.70
12309;DHT22;6217;48.150;17.142;2023-09-19T18:13:30;21.30;88.90
12309;DHT22;6217;48.150;17.142;2023-09-19T18:17:36;21.30;89.10
12309;DHT22;6217;48.150;17.142;2023-09-19T18:21:45;21.30;89.00
12309;DHT22;6217;48.150;17.142;2023-09-19T18:26:00;21.30;89.00
12309;DHT22;6217;48.150;17.142;2023-09-19T18:30:11;21.40;88.90
12309;DHT22;6217;48.150;17.142;2023-09-19T18:34:17;21.30;88.80
12309;DHT22;6217;48.150;17.142;2023-09-19T18:38:26;21.30;88.90
12309;DHT22;6217;48.150;17.142;2023-09-19T18:42:31;21.30;88.90
12309;DHT22;6217;48.150;17.142;2023-09-19T18:46:37;21.00;89.50
12309;DHT22;6217;48.150;17.142;2023-09-19T18:50:48;21.00;89.70
12309;DHT22;6217;48.150;17.142;2023-09-19T18:54:56;21.10;89.40
12309;DHT22;6217;48.150;17.142;2023-09-19T18:59:02;21.10;88.80
12309;DHT22;6217;48.150;17.142;2023-09-19T19:03:08;21.00;89.50
12309;DHT22;6217;48.150;17.142;2023-09-19T19:07:14;20.90;89.90
12309;DHT22;6217;48.150;17.142;2023-09-19T19:11:22;20.90;90.00
12309;DHT22;6217;48.150;17.142;2023-09-19T19:15:33;20.80;90.10
12309;DHT22;6217;48.150;17.142;2023-09-19T19:19:39;20.80;90.10
12309;DHT22;6217;48.150;17.142;2023-09-19T19:23:47;20.80;90.10
12309;DHT22;6217;48.150;17.142;2023-09-19T19:27:53;20.90;90.00
12309;DHT22;6217;48.150;17.142;2023-09-19T19:31:59;21.00;89.60
12309;DHT22;6217;48.150;17.142;2023-09-19T19:36:09;20.90;89.70
12309;DHT22;6217;48.150;17.142;2023-09-19T19:40:16;20.90;89.80
12309;DHT22;6217;48.150;17.142;2023-09-19T19:44:22;20.80;89.80
12309;DHT22;6217;48.150;17.142;2023-09-19T19:48:29;20.70;90.00
12309;DHT22;6217;48.150;17.142;2023-09-19T19:52:35;20.60;90.30
12309;DHT22;6217;48.150;17.142;2023-09-19T19:56:44;20.60;90.30
12309;DHT22;6217;48.150;17.142;2023-09-19T20:00:55;20.50;90.40
12309;DHT22;6217;48.150;17.142;2023-09-19T20:05:06;20.50;90.40
12309;DHT22;6217;48.150;17.142;2023-09-19T20:09:12;20.50;90.40
12309;DHT22;6217;48.150;17.142;2023-09-19T20:13:21;20.30;90.70
12309;DHT22;6217;48.150;17.142;2023-09-19T20:17:30;20.30;90.70
12309;DHT22;6217;48.150;17.142;2023-09-19T20:21:36;20.30;90.80
12309;DHT22;6217;48.150;17.142;2023-09-19T20:25:49;20.40;90.10
12309;DHT22;6217;48.150;17.142;2023-09-19T20:29:54;20.40;89.60
12309;DHT22;6217;48.150;17.142;2023-09-19T20:34:03;20.40;89.10
12309;DHT22;6217;48.150;17.142;2023-09-19T20:38:09;20.40;89.20
12309;DHT22;6217;48.150;17.142;2023-09-19T20:42:22;20.40;89.20
12309;DHT22;6217;48.150;17.142;2023-09-19T20:46:31;20.40;89.20
12309;DHT22;6217;48.150;17.142;2023-09-19T20:50:38;20.40;88.90
12309;DHT22;6217;48.150;17.142;2023-09-19T20:54:44;20.40;88.50
12309;DHT22;6217;48.150;17.142;2023-09-19T20:58:52;20.30;88.40
12309;DHT22;6217;48.150;17.142;2023-09-19T21:02:58;20.30;89.00
12309;DHT22;6217;48.150;17.142;2023-09-19T21:07:04;20.20;88.30
12309;DHT22;6217;48.150;17.142;2023-09-19T21:11:12;20.20;88.10
12309;DHT22;6217;48.150;17.142;2023-09-19T21:15:22;20.30;88.00
12309;DHT22;6217;48.150;17.142;2023-09-19T21:19:29;20.20;87.90
12309;DHT22;6217;48.150;17.142;2023-09-19T21:23:41;20.20;87.90
12309;DHT22;6217;48.150;17.142;2023-09-19T21:27:48;20.20;87.80
12309;DHT22;6217;48.150;17.142;2023-09-19T21:31:54;20.10;87.80
12309;DHT22;6217;48.150;17.142;2023-09-19T21:36:00;20.10;87.80
12309;DHT22;6217;48.150;17.142;2023-09-19T21:40:07;20.10;87.80
12309;DHT22;6217;48.150;17.142;2023-09-19T21:44:14;20.10;87.50
12309;DHT22;6217;48.150;17.142;2023-09-19T21:48:20;20.10;87.20
12309;DHT22;6217;48.150;17.142;2023-09-19T21:52:26;20.10;86.90
12309;DHT22;6217;48.150;17.142;2023-09-19T21:56:33;20.20;86.70
12309;DHT22;6217;48.150;17.142;2023-09-19T22:00:41;20.10;86.50
12309;DHT22;6217;48.150;17.142;2023-09-19T22:04:52;20.00;86.40
12309;DHT22;6217;48.150;17.142;2023-09-19T22:08:58;19.90;86.50
12309;DHT22;6217;48.150;17.142;2023-09-19T22:13:05;19.90;86.80
12309;DHT22;6217;48.150;17.142;2023-09-19T22:17:13;19.80;86.90
12309;DHT22;6217;48.150;17.142;2023-09-19T22:21:20;19.80;87.00
12309;DHT22;6217;48.150;17.142;2023-09-19T22:25:38;19.80;86.80
12309;DHT22;6217;48.150;17.142;2023-09-19T22:29:44;19.80;86.90
12309;DHT22;6217;48.150;17.142;2023-09-19T22:33:54;19.80;86.80
12309;DHT22;6217;48.150;17.142;2023-09-19T22:38:01;19.80;86.70
12309;DHT22;6217;48.150;17.142;2023-09-19T22:42:07;19.80;86.50
12309;DHT22;6217;48.150;17.142;2023-09-19T22:46:17;19.80;86.40
12309;DHT22;6217;48.150;17.142;2023-09-19T22:50:27;19.80;86.40
12309;DHT22;6217;48.150;17.142;2023-09-19T22:54:35;19.70;87.10
12309;DHT22;6217;48.150;17.142;2023-09-19T22:58:43;19.70;86.50
12309;DHT22;6217;48.150;17.142;2023-09-19T23:02:51;19.60;86.60
12309;DHT22;6217;48.150;17.142;2023-09-19T23:06:57;19.50;86.90
12309;DHT22;6217;48.150;17.142;2023-09-19T23:11:10;19.60;87.00
12309;DHT22;6217;48.150;17.142;2023-09-19T23:15:18;19.50;86.90
12309;DHT22;6217;48.150;17.142;2023-09-19T23:19:25;19.50;87.00
12309;DHT22;6217;48.150;17.142;2023-09-19T23:23:35;19.50;86.90
12309;DHT22;6217;48.150;17.142;2023-09-19T23:27:42;19.50;86.70
12309;DHT22;6217;48.150;17.142;2023-09-19T23:31:52;19.40;86.50
12309;DHT22;6217;48.150;17.142;2023-09-19T23:35:59;19.40;86.50
12309;DHT22;6217;48.150;17.142;2023-09-19T23:40:05;19.40;86.50
12309;DHT22;6217;48.150;17.142;2023-09-19T23:44:15;19.30;86.50
12309;DHT22;6217;48.150;17.142;2023-09-19T23:48:21;19.30;86.70
12309;DHT22;6217;48.150;17.142;2023-09-19T23:52:32;19.20;86.80
12309;DHT22;6217;48.150;17.142;2023-09-19T23:56:38;19.20;87.00
